Time;durP1;ratioP1;P1;durP2;ratioP2;P2;SDS_P1;SDS_P2;PMS_P1;PMS_P2;Temp;Humidity;BMP_temperature;BMP_pressure;BME280_temperature;BME280_humidity;BME280_pressure;Samples;Min_cycle;Max_cycle;Signal;HPM_P1;HPM_P2
2021/10/29 00:00:41;;;;;;;;;;;;;;;18.38;59.64;102011.94;5025051;28;1592;-41
2021/10/29 00:03:07;;;;;;;;;;;;;;;18.35;59.69;102009.50;5025376;28;2057;-41
2021/10/29 00:05:35;;;;;;;;;;;;;;;18.34;60.08;102005.94;5030538;28;1569;-41
2021/10/29 00:08:02;;;;;;;;;;;;;;;18.35;60.04;102006.81;5026108;28;1565;-41
2021/10/29 00:10:29;;;;;;;;;;;;;;;18.36;59.69;102025.44;5022543;28;1840;-41
2021/10/29 00:12:56;;;;;;;;;;;;;;;18.37;59.73;102016.44;5029079;28;1590;-41
2021/10/29 00:15:25;;;;;;;;;;;;;;;18.36;59.57;102017.41;5029354;28;1530;-41
2021/10/29 00:17:52;;;;;;;;;;;;;;;18.36;59.31;102016.53;5030769;28;1980;-41
2021/10/29 00:20:27;;;;;;;;;;;;;;;18.38;59.59;102014.63;5032557;28;1835;-41
2021/10/29 00:22:53;;;;;;;;;;;;;;;18.37;59.59;102008.41;5029098;28;1620;-41
2021/10/29 00:25:20;;;;;;;;;;;;;;;18.37;59.72;102012.91;5022496;28;1474;-41
2021/10/29 00:27:47;;;;;;;;;;;;;;;18.37;59.72;102012.91;5025662;28;1459;-41
2021/10/29 00:30:13;;;;;;;;;;;;;;;18.34;59.35;102010.44;5021758;28;1799;-41
2021/10/29 00:32:41;;;;;;;;;;;;;;;18.33;59.03;102017.63;5029208;28;1594;-42
2021/10/29 00:35:08;;;;;;;;;;;;;;;18.32;59.13;102005.16;5024309;28;1464;-43
2021/10/29 00:37:39;;;;;;;;;;;;;;;18.31;59.01;102003.47;5027327;28;1519;-41
2021/10/29 00:40:07;;;;;;;;;;;;;;;18.32;59.31;102001.63;5028480;28;1973;-41
2021/10/29 00:42:33;;;;;;;;;;;;;;;18.31;59.18;102000.78;5025566;28;1548;-41
2021/10/29 00:45:00;;;;;;;;;;;;;;;18.32;59.19;101998.97;5028229;28;1718;-41
2021/10/29 00:47:26;;;;;;;;;;;;;;;18.29;59.21;101998.22;5022422;28;1637;-41
2021/10/29 00:49:54;;;;;;;;;;;;;;;18.33;59.40;101984.63;5028275;28;1863;-41
2021/10/29 00:52:20;;;;;;;;;;;;;;;18.31;59.26;101992.75;5026316;28;1775;-41
2021/10/29 00:54:47;;;;;;;;;;;;;;;18.29;59.00;101989.31;5021624;28;1664;-42
2021/10/29 00:57:13;;;;;;;;;;;;;;;18.30;59.01;101999.06;5027313;28;1552;-41
2021/10/29 00:59:40;;;;;;;;;;;;;;;18.33;59.16;101995.34;5033689;28;1906;-41
2021/10/29 01:02:06;;;;;;;;;;;;;;;18.29;59.23;101979.47;5030289;28;1554;-41
2021/10/29 01:04:33;;;;;;;;;;;;;;;18.26;59.08;101985.03;5018277;28;1809;-41
2021/10/29 01:07:01;;;;;;;;;;;;;;;18.27;58.92;101980.53;5032807;28;1572;-41
2021/10/29 01:09:28;;;;;;;;;;;;;;;18.27;59.26;101980.53;5024462;28;1421;-42
2021/10/29 01:11:54;;;;;;;;;;;;;;;18.27;58.86;101980.53;5027723;28;1950;-41
2021/10/29 01:14:21;;;;;;;;;;;;;;;18.27;59.01;101985.88;5025770;28;1594;-41
2021/10/29 01:16:47;;;;;;;;;;;;;;;18.29;59.23;101990.16;5025917;28;1721;-41
2021/10/29 01:19:14;;;;;;;;;;;;;;;18.31;59.11;101989.22;5029287;28;1910;-41
2021/10/29 01:21:41;;;;;;;;;;;;;;;18.27;58.97;101981.38;5022392;28;1911;-41
2021/10/29 01:24:08;;;;;;;;;;;;;;;18.25;58.62;101983.31;5027694;28;1825;-41
2021/10/29 01:26:35;;;;;;;;;;;;;;;18.27;58.65;101980.53;5029967;28;1956;-41
2021/10/29 01:29:01;;;;;;;;;;;;;;;18.26;58.56;101990.38;5023102;28;1595;-41
2021/10/29 01:31:28;;;;;;;;;;;;;;;18.23;58.73;101979.88;5031008;28;1616;-41
2021/10/29 01:33:54;;;;;;;;;;;;;;;18.26;58.79;101984.16;5032962;28;1598;-42
2021/10/29 01:36:21;;;;;;;;;;;;;;;18.26;58.89;101979.69;5027647;28;1525;-41
2021/10/29 01:38:52;;;;;;;;;;;;;;;18.25;58.08;101982.44;5029555;28;1975;-41
2021/10/29 01:41:18;;;;;;;;;;;;;;;18.24;58.55;101981.59;5028053;28;1687;-41
2021/10/29 01:43:45;;;;;;;;;;;;;;;18.24;58.82;101981.59;5022168;28;1497;-41
2021/10/29 01:46:13;;;;;;;;;;;;;;;18.25;58.73;101977.09;5031574;28;1782;-41
2021/10/29 01:48:41;;;;;;;;;;;;;;;18.24;58.54;101984.28;5031630;28;1677;-41
2021/10/29 01:51:07;;;;;;;;;;;;;;;18.23;58.27;101974.50;5028661;28;1801;-41
2021/10/29 01:53:34;;;;;;;;;;;;;;;18.22;58.50;101978.16;5024536;28;1721;-41
2021/10/29 01:56:01;;;;;;;;;;;;;;;18.26;58.63;101993.06;5025822;28;1661;-41
2021/10/29 01:58:28;;;;;;;;;;;;;;;18.24;58.24;101981.59;5023510;28;1906;-41
2021/10/29 02:00:55;;;;;;;;;;;;;;;18.22;58.49;101988.88;5140751;22;3547;-41
2021/10/29 02:03:24;;;;;;;;;;;;;;;18.29;58.11;101976.78;5007806;28;1621;-41
2021/10/29 02:06:01;;;;;;;;;;;;;;;18.71;57.39;101975.84;5014625;28;1097;-41
2021/10/29 02:08:31;;;;;;;;;;;;;;;19.35;55.78;101968.72;5001678;28;2263;-41
2021/10/29 02:11:01;;;;;;;;;;;;;;;19.47;55.70;101964.31;5005959;28;1951;-42
2021/10/29 02:13:31;;;;;;;;;;;;;;;19.15;56.02;101955.88;4995636;28;1609;-41
2021/10/29 02:15:59;;;;;;;;;;;;;;;19.22;56.42;101965.19;5005174;28;1607;-41
2021/10/29 02:18:27;;;;;;;;;;;;;;;19.51;54.89;101959.59;5012499;28;1976;-41
2021/10/29 02:20:56;;;;;;;;;;;;;;;19.63;54.66;101956.00;5007639;28;1680;-41
2021/10/29 02:23:27;;;;;;;;;;;;;;;19.82;54.90;101959.13;5011783;28;1730;-41
2021/10/29 02:25:53;;;;;;;;;;;;;;;19.78;55.40;101957.63;5005758;28;1427;-42
2021/10/29 02:28:28;;;;;;;;;;;;;;;19.76;54.78;101964.09;5000315;28;1749;-42
2021/10/29 02:30:58;;;;;;;;;;;;;;;19.72;54.47;101954.53;5008586;28;1592;-41
2021/10/29 02:36:07;;;;;;;;;;;;;;;19.74;55.53;101964.19;4994208;28;2349;-41
2021/10/29 02:38:35;;;;;;;;;;;;;;;19.73;55.54;101966.97;5022259;28;1919;-41
2021/10/29 02:41:02;;;;;;;;;;;;;;;19.71;55.05;101964.41;5011468;28;1919;-41
2021/10/29 02:43:33;;;;;;;;;;;;;;;19.78;54.22;101973.72;5013949;28;1770;-41
2021/10/29 02:46:03;;;;;;;;;;;;;;;19.79;54.60;101972.75;5010189;28;1855;-42
2021/10/29 02:48:38;;;;;;;;;;;;;;;19.81;54.72;101961.91;5012235;28;1884;-41
2021/10/29 02:51:29;;;;;;;;;;;;;;;19.85;54.58;101966.94;5012167;28;1757;-41
2021/10/29 02:53:59;;;;;;;;;;;;;;;19.77;55.24;101972.00;4994481;28;1761;-41
2021/10/29 02:56:28;;;;;;;;;;;;;;;19.76;55.76;101967.63;5013684;28;1770;-41
2021/10/29 02:58:58;;;;;;;;;;;;;;;19.77;56.11;101963.94;5013671;28;1977;-42
2021/10/29 03:01:25;;;;;;;;;;;;;;;19.83;56.73;101970.69;5012828;28;1688;-41
2021/10/29 03:03:55;;;;;;;;;;;;;;;19.80;56.36;101969.13;5003756;28;1499;-40
2021/10/29 03:06:23;;;;;;;;;;;;;;;19.79;56.52;101966.53;5018654;28;1713;-41
2021/10/29 03:08:51;;;;;;;;;;;;;;;19.81;57.36;101959.22;5013903;28;1434;-41
2021/10/29 03:11:19;;;;;;;;;;;;;;;19.80;57.67;101974.47;5010475;28;1704;-41
2021/10/29 03:13:49;;;;;;;;;;;;;;;19.80;56.85;101966.44;5004704;28;1821;-41
2021/10/29 03:16:17;;;;;;;;;;;;;;;19.82;57.68;101967.16;5001346;28;1528;-41
2021/10/29 03:18:49;;;;;;;;;;;;;;;19.83;57.16;101974.25;5000143;28;1494;-41
2021/10/29 03:21:15;;;;;;;;;;;;;;;19.84;57.66;101973.28;5005585;28;1538;-41
2021/10/29 03:23:43;;;;;;;;;;;;;;;19.90;56.94;101980.03;5020009;28;1508;-41
2021/10/29 03:26:11;;;;;;;;;;;;;;;19.90;56.65;101971.13;5013139;28;1658;-41
2021/10/29 03:28:41;;;;;;;;;;;;;;;19.89;56.76;101974.78;5007852;28;1520;-41
2021/10/29 03:31:08;;;;;;;;;;;;;;;19.93;56.56;101974.44;5012210;28;1795;-41
2021/10/29 03:33:38;;;;;;;;;;;;;;;19.92;56.73;101974.56;5014463;28;1900;-41
2021/10/29 03:36:07;;;;;;;;;;;;;;;19.92;56.88;101975.41;5002745;28;1528;-41
2021/10/29 03:38:55;;;;;;;;;;;;;;;19.87;56.68;101964.13;5010217;28;1766;-41
2021/10/29 03:41:26;;;;;;;;;;;;;;;19.89;57.06;101969.41;5008610;28;1940;-41
2021/10/29 03:43:56;;;;;;;;;;;;;;;19.91;57.63;101965.63;5016706;28;1607;-41
2021/10/29 03:46:25;;;;;;;;;;;;;;;19.90;57.15;101976.50;5007887;28;1557;-41
2021/10/29 03:49:11;;;;;;;;;;;;;;;19.91;57.58;101975.53;5010531;28;1879;-41
2021/10/29 03:51:43;;;;;;;;;;;;;;;19.89;57.70;101972.94;5004079;28;1716;-41
2021/10/29 03:54:13;;;;;;;;;;;;;;;19.92;57.22;101979.94;5013093;28;1614;-41
2021/10/29 03:56:56;;;;;;;;;;;;;;;19.90;57.47;101976.50;5008605;28;1724;-41
2021/10/29 03:59:24;;;;;;;;;;;;;;;19.94;56.78;101984.22;5007829;28;1973;-41
2021/10/29 04:01:54;;;;;;;;;;;;;;;20.02;56.35;101981.81;5004525;28;1599;-41
2021/10/29 04:04:21;;;;;;;;;;;;;;;19.94;57.32;101978.84;5000930;28;1796;-41
2021/10/29 04:06:54;;;;;;;;;;;;;;;19.82;56.93;101994.00;4999476;28;1806;-41
2021/10/29 04:09:23;;;;;;;;;;;;;;;19.67;58.44;102000.44;5013019;28;1720;-41
2021/10/29 04:11:51;;;;;;;;;;;;;;;19.74;57.67;101974.94;5024430;28;1688;-41
2021/10/29 04:14:25;;;;;;;;;;;;;;;19.80;57.90;101993.28;5012690;28;2285;-41
2021/10/29 04:17:49;;;;;;;;;;;;;;;19.82;57.12;101991.31;4991624;28;12488;-41
2021/10/29 04:20:39;;;;;;;;;;;;;;;19.84;57.70;101996.59;5011993;28;1590;-40
2021/10/29 04:23:08;;;;;;;;;;;;;;;19.84;57.21;101993.91;5008003;28;1845;-41
2021/10/29 04:25:38;;;;;;;;;;;;;;;19.95;58.25;101995.81;5007210;28;2789;-42
2021/10/29 04:30:48;;;;;;;;;;;;;;;19.84;57.80;101984.03;4991209;28;2535;-41
2021/10/29 04:33:17;;;;;;;;;;;;;;;19.94;57.41;101991.41;4982113;28;1590;-41
2021/10/29 04:35:47;;;;;;;;;;;;;;;20.00;57.46;101993.66;4987144;28;1914;-42
2021/10/29 04:38:17;;;;;;;;;;;;;;;19.86;57.76;101995.50;4989835;28;1543;-41
2021/10/29 04:40:45;;;;;;;;;;;;;;;19.90;58.49;101992.59;4992588;28;1949;-41
2021/10/29 04:43:13;;;;;;;;;;;;;;;19.84;58.18;101994.75;4986015;28;1752;-41
2021/10/29 04:45:42;;;;;;;;;;;;;;;19.82;59.32;101987.78;4982738;28;1722;-41
2021/10/29 04:48:09;;;;;;;;;;;;;;;19.85;58.72;101985.72;4988282;28;1947;-41
2021/10/29 04:50:51;;;;;;;;;;;;;;;19.83;59.37;101992.19;4994542;28;1605;-41
2021/10/29 04:53:19;;;;;;;;;;;;;;;19.61;60.35;101995.53;4988582;28;1722;-41
2021/10/29 04:55:47;;;;;;;;;;;;;;;19.46;60.56;101998.34;4993483;28;1960;-42
2021/10/29 04:58:22;;;;;;;;;;;;;;;19.23;60.75;102007.13;4986271;28;1768;-41
2021/10/29 05:00:49;;;;;;;;;;;;;;;19.16;61.15;101995.09;4984424;28;1550;-41
2021/10/29 05:03:17;;;;;;;;;;;;;;;19.13;61.17;102001.53;4971721;28;1666;-41
2021/10/29 05:05:52;;;;;;;;;;;;;;;19.07;60.91;102008.19;4970753;28;1972;-41
2021/10/29 05:08:26;;;;;;;;;;;;;;;19.70;60.07;102000.25;4969783;28;1898;-41
2021/10/29 05:11:03;;;;;;;;;;;;;;;20.01;60.24;101998.03;4968756;28;1610;-41
2021/10/29 05:13:32;;;;;;;;;;;;;;;20.21;59.17;102002.81;4976870;28;1607;-41
2021/10/29 05:16:01;;;;;;;;;;;;;;;20.04;59.12;102008.56;4968689;28;1919;-42
2021/10/29 05:18:30;;;;;;;;;;;;;;;19.62;60.67;102010.66;4968115;28;1661;-41
2021/10/29 05:20:57;;;;;;;;;;;;;;;19.46;60.61;102014.44;4960951;28;1629;-41
2021/10/29 05:23:36;;;;;;;;;;;;;;;19.36;61.63;102012.47;4969881;28;1730;-41
2021/10/29 05:26:04;;;;;;;;;;;;;;;19.20;61.95;102018.06;4969036;28;1536;-41
2021/10/29 05:28:33;;;;;;;;;;;;;;;18.72;59.15;102023.09;4953278;28;1344;-42
2021/10/29 05:31:01;;;;;;;;;;;;;;;19.35;60.41;102019.69;4944077;28;1543;-41
2021/10/29 05:36:17;;;;;;;;;;;;;;;19.67;59.53;102016.53;4954708;28;2425;-41
2021/10/29 05:38:46;;;;;;;;;;;;;;;19.68;60.02;102015.59;4959202;28;1848;-42
2021/10/29 05:41:13;;;;;;;;;;;;;;;20.03;59.49;102020.25;4953042;28;1688;-41
2021/10/29 05:43:40;;;;;;;;;;;;;;;20.30;57.70;102012.00;4958751;28;1780;-41
2021/10/29 05:46:10;;;;;;;;;;;;;;;20.44;57.27;102027.09;4949041;28;1594;-41
2021/10/29 05:48:39;;;;;;;;;;;;;;;20.18;58.39;102019.16;4964899;28;1446;-41
2021/10/29 05:51:10;;;;;;;;;;;;;;;20.06;58.27;102012.84;4951074;28;2031;-41
2021/10/29 05:53:40;;;;;;;;;;;;;;;19.91;59.26;102029.22;4947346;28;1719;-41
2021/10/29 05:56:10;;;;;;;;;;;;;;;19.95;58.98;102030.69;4952979;29;1907;-41
2021/10/29 05:58:36;;;;;;;;;;;;;;;20.01;58.49;102014.16;4957793;28;1835;-41
2021/10/29 06:01:11;;;;;;;;;;;;;;;20.10;58.39;102031.44;4957226;28;1618;-41
2021/10/29 06:03:37;;;;;;;;;;;;;;;19.90;58.11;102035.56;4955357;28;1583;-41
2021/10/29 06:06:05;;;;;;;;;;;;;;;20.04;57.87;102041.63;4952367;28;1860;-41
2021/10/29 06:08:32;;;;;;;;;;;;;;;19.79;59.27;102037.16;4962184;28;1824;-41
2021/10/29 06:11:00;;;;;;;;;;;;;;;20.00;57.90;102036.59;4962530;28;1810;-41
2021/10/29 06:13:30;;;;;;;;;;;;;;;19.84;58.59;102039.53;4923584;28;1751;-41
2021/10/29 06:15:58;;;;;;;;;;;;;;;19.67;59.13;102035.31;4959641;28;1652;-42
2021/10/29 06:18:27;;;;;;;;;;;;;;;19.62;59.65;102038.34;4928962;28;1953;-41
2021/10/29 06:20:57;;;;;;;;;;;;;;;19.63;59.31;102042.72;4954807;28;1528;-41
2021/10/29 06:23:32;;;;;;;;;;;;;;;19.92;59.68;102049.72;4945158;28;1841;-41
2021/10/29 06:26:09;;;;;;;;;;;;;;;20.17;58.14;102046.97;4956351;28;1630;-41
2021/10/29 06:31:22;;;;;;;;;;;;;;;19.96;59.46;102041.34;4955686;28;2332;-41
2021/10/29 06:36:31;;;;;;;;;;;;;;;19.95;59.20;102046.81;4960438;28;2429;-41
2021/10/29 06:39:01;;;;;;;;;;;;;;;20.21;59.41;102053.84;4960091;28;1738;-41
2021/10/29 06:41:29;;;;;;;;;;;;;;;20.00;59.84;102047.34;4950992;28;1766;-42
2021/10/29 06:44:10;;;;;;;;;;;;;;;19.90;59.03;102044.47;4949298;28;1756;-41
2021/10/29 06:46:43;;;;;;;;;;;;;;;20.03;59.48;102045.31;4949464;28;1680;-41
2021/10/29 06:49:18;;;;;;;;;;;;;;;20.24;59.34;102048.25;4952564;28;1578;-41
2021/10/29 07:00:20;;;;;;;;;;;;;;;20.21;59.40;102040.41;4944549;28;1700;-41
2021/10/29 07:41:14;;;;;;;;;;;;;;;20.21;59.64;102032.38;4953234;28;1601;-41
2021/10/29 07:43:47;;;;;;;;;;;;;;;20.06;60.59;102026.28;4954022;28;1843;-42
2021/10/29 07:46:21;;;;;;;;;;;;;;;20.30;60.32;102024.59;4957385;28;1519;-42
2021/10/29 07:48:53;;;;;;;;;;;;;;;20.59;57.93;102017.94;4948558;28;1658;-41
2021/10/29 07:51:23;;;;;;;;;;;;;;;20.57;58.56;102030.59;4953813;28;1832;-41
2021/10/29 07:53:51;;;;;;;;;;;;;;;20.31;59.97;102026.28;4954074;28;1721;-41
2021/10/29 07:56:17;;;;;;;;;;;;;;;20.12;60.69;102027.66;4946384;28;1903;-41
2021/10/29 07:58:44;;;;;;;;;;;;;;;20.36;59.31;102010.69;4956376;28;1791;-42
2021/10/29 08:01:11;;;;;;;;;;;;;;;20.63;59.46;102027.47;4948607;28;1906;-41
2021/10/29 08:03:39;;;;;;;;;;;;;;;20.41;60.06;102027.31;4958089;28;1761;-42
2021/10/29 08:06:14;;;;;;;;;;;;;;;20.20;60.15;102025.25;4953388;28;1707;-41
2021/10/29 08:08:41;;;;;;;;;;;;;;;20.16;60.65;102015.72;4968568;28;1599;-41
2021/10/29 08:11:12;;;;;;;;;;;;;;;20.65;59.71;102012.09;4951569;28;1865;-41
2021/10/29 08:13:39;;;;;;;;;;;;;;;20.90;58.13;102017.44;4957250;28;1579;-41
2021/10/29 08:16:05;;;;;;;;;;;;;;;20.60;58.93;102014.25;4957243;28;1615;-41
2021/10/29 08:18:40;;;;;;;;;;;;;;;20.33;59.97;102019.81;4952672;28;1902;-41
2021/10/29 08:21:10;;;;;;;;;;;;;;;20.21;60.72;102018.06;4956655;28;1665;-41
2021/10/29 08:23:37;;;;;;;;;;;;;;;20.59;58.93;102011.69;4951926;28;1840;-41
2021/10/29 08:26:04;;;;;;;;;;;;;;;21.00;58.29;102016.59;4952045;29;1686;-40
2021/10/29 08:28:31;;;;;;;;;;;;;;;20.69;59.47;102009.16;4952584;29;1491;-40
2021/10/29 08:30:58;;;;;;;;;;;;;;;20.46;60.62;101998.28;4949504;28;1396;-40
2021/10/29 08:33:28;;;;;;;;;;;;;;;20.34;59.83;102009.97;4952149;28;1644;-40
2021/10/29 08:35:57;;;;;;;;;;;;;;;20.63;59.53;102005.97;4951633;28;1355;-40
2021/10/29 08:38:36;;;;;;;;;;;;;;;20.91;59.65;102001.19;4952934;29;1907;-40
2021/10/29 08:41:04;;;;;;;;;;;;;;;20.64;58.95;102005.00;4947837;29;1675;-40
2021/10/29 08:43:31;;;;;;;;;;;;;;;20.43;60.82;102014.63;4950760;29;1502;-40
2021/10/29 08:45:58;;;;;;;;;;;;;;;20.46;60.90;101999.13;4951747;28;1402;-40
2021/10/29 08:48:25;;;;;;;;;;;;;;;20.94;59.68;101992.03;4951581;28;1739;-40
2021/10/29 08:50:56;;;;;;;;;;;;;;;20.84;59.21;101992.72;4949914;28;1441;-40
2021/10/29 08:53:31;;;;;;;;;;;;;;;20.53;60.17;101999.56;4948064;29;1739;-40
2021/10/29 08:56:04;;;;;;;;;;;;;;;20.38;61.45;102000.69;4949603;28;1777;-40
2021/10/29 08:58:36;;;;;;;;;;;;;;;20.62;60.21;101993.50;4952136;29;1979;-40
2021/10/29 09:01:09;;;;;;;;;;;;;;;21.06;58.94;101997.28;4947487;28;1427;-40
2021/10/29 09:03:43;;;;;;;;;;;;;;;20.92;60.03;101989.44;4952873;28;1545;-40
2021/10/29 09:06:32;;;;;;;;;;;;;;;20.60;60.75;101987.38;4952935;29;1612;-40
2021/10/29 09:09:06;;;;;;;;;;;;;;;20.43;61.99;101988.66;4955813;29;1319;-40
2021/10/29 09:17:25;;;;;;;;;;;;;;;20.62;61.27;101972.00;4953640;28;1918;-40
2021/10/29 09:31:36;;;;;;;;;;;;;;;20.66;61.50;101962.72;4949031;29;1505;-40
2021/10/29 09:34:05;;;;;;;;;;;;;;;20.50;62.43;101967.53;4954923;28;1786;-40
2021/10/29 09:36:36;;;;;;;;;;;;;;;20.39;61.96;101970.16;4953874;28;1471;-40
2021/10/29 09:39:08;;;;;;;;;;;;;;;20.95;60.15;101972.19;4962039;28;1970;-40
2021/10/29 09:41:55;;;;;;;;;;;;;;;21.03;60.11;101967.13;4960566;28;1482;-40
2021/10/29 09:44:38;;;;;;;;;;;;;;;20.73;62.19;101964.94;4956151;28;1565;-40
2021/10/29 09:47:22;;;;;;;;;;;;;;;20.48;61.76;101952.50;4953976;28;1742;-40
2021/10/29 09:50:11;;;;;;;;;;;;;;;20.40;61.85;101956.63;4954797;28;2111;-39
2021/10/29 09:53:01;;;;;;;;;;;;;;;20.88;61.19;101950.31;4956322;28;1616;-40
2021/10/29 09:55:54;;;;;;;;;;;;;;;20.69;61.30;101956.28;4953048;29;1681;-40
2021/10/29 09:58:23;;;;;;;;;;;;;;;20.40;62.05;101947.72;4951783;28;1969;-40
2021/10/29 10:00:51;;;;;;;;;;;;;;;20.31;62.80;101951.06;4954299;29;1518;-40
2021/10/29 10:03:22;;;;;;;;;;;;;;;20.25;62.93;101945.22;4953781;28;1670;-40
2021/10/29 10:06:03;;;;;;;;;;;;;;;20.15;63.01;101943.31;4958229;28;1478;-40
2021/10/29 10:08:54;;;;;;;;;;;;;;;20.10;63.63;101937.44;4957287;28;1661;-40
2021/10/29 10:11:22;;;;;;;;;;;;;;;20.08;61.71;101921.44;4957893;28;1427;-40
2021/10/29 10:13:50;;;;;;;;;;;;;;;20.09;59.97;101944.63;4961080;28;1763;-38
2021/10/29 10:16:19;;;;;;;;;;;;;;;20.06;59.92;101926.91;4953313;28;1506;-40
2021/10/29 10:18:50;;;;;;;;;;;;;;;19.98;60.63;101925.78;4952639;28;1991;-40
2021/10/29 10:21:27;;;;;;;;;;;;;;;19.90;60.15;101917.44;4955934;28;1607;-40
2021/10/29 10:24:00;;;;;;;;;;;;;;;19.95;60.04;101920.63;4956525;28;1485;-40
2021/10/29 10:29:48;;;;;;;;;;;;;;;19.65;59.44;101917.34;4950751;28;1548;-41
2021/10/29 10:41:30;;;;;;;;;;;;;;;19.79;58.25;101896.75;4962811;28;1691;-40
2021/10/29 10:47:21;;;;;;;;;;;;;;;19.66;58.60;101894.09;5101537;27;1801;-40
2021/10/29 10:49:51;;;;;;;;;;;;;;;19.62;58.76;101881.88;5100918;28;1944;-40
2021/10/29 10:52:23;;;;;;;;;;;;;;;19.60;59.66;101883.81;5103941;28;1898;-39
2021/10/29 10:55:02;;;;;;;;;;;;;;;19.65;59.79;101895.03;5107170;28;1738;-40
2021/10/29 10:57:43;;;;;;;;;;;;;;;19.71;59.47;101886.56;5095799;28;1732;-40
2021/10/29 11:00:21;;;;;;;;;;;;;;;19.64;59.99;101869.19;5100556;28;1552;-39
2021/10/29 11:11:14;;;;;;;;;;;;;;;19.57;59.64;101889.38;5092364;28;1729;-40
2021/10/29 11:14:07;;;;;;;;;;;;;;;19.63;60.48;101875.50;5090925;28;1628;-40
2021/10/29 11:16:38;;;;;;;;;;;;;;;19.66;59.25;101867.25;5052344;28;1541;-40
2021/10/29 11:19:11;;;;;;;;;;;;;;;19.58;60.29;101850.88;5098064;28;1710;-40
2021/10/29 11:21:57;;;;;;;;;;;;;;;19.57;59.57;101865.22;5097303;28;1654;-40
2021/10/29 11:24:43;;;;;;;;;;;;;;;19.55;60.43;101861.81;5080047;28;1715;-40
2021/10/29 11:27:13;;;;;;;;;;;;;;;19.59;59.79;101861.47;5097884;28;1905;-40
2021/10/29 11:29:46;;;;;;;;;;;;;;;19.65;60.46;101869.06;5093047;28;1715;-40
2021/10/29 11:32:15;;;;;;;;;;;;;;;19.64;59.42;101855.78;5093801;28;1597;-40
2021/10/29 11:34:47;;;;;;;;;;;;;;;19.61;60.68;101864.88;5095867;28;1812;-40
2021/10/29 11:37:15;;;;;;;;;;;;;;;19.63;60.00;101852.22;5099909;28;1660;-40
2021/10/29 11:39:43;;;;;;;;;;;;;;;19.56;60.44;101852.81;5092608;28;1592;-40
2021/10/29 11:42:17;;;;;;;;;;;;;;;19.45;60.54;101849.06;5097005;28;1601;-40
2021/10/29 11:44:54;;;;;;;;;;;;;;;19.41;61.22;101855.63;5094417;28;1558;-40
2021/10/29 11:47:24;;;;;;;;;;;;;;;19.38;61.18;101850.50;5096535;28;1906;-40
2021/10/29 11:50:15;;;;;;;;;;;;;;;19.39;60.95;101841.47;5095733;28;2011;-40
2021/10/29 11:52:46;;;;;;;;;;;;;;;19.35;60.96;101842.66;5094730;28;1611;-40
2021/10/29 11:55:25;;;;;;;;;;;;;;;19.33;61.62;101847.28;5101174;28;1714;-40
2021/10/29 11:58:03;;;;;;;;;;;;;;;19.28;60.63;101830.69;5093356;28;1599;-40
2021/10/29 12:00:45;;;;;;;;;;;;;;;19.28;61.53;101830.69;5084289;28;2152;-40
2021/10/29 12:09:30;;;;;;;;;;;;;;;19.25;61.24;101836.25;5123699;27;1548;-40
2021/10/29 12:12:00;;;;;;;;;;;;;;;19.25;60.71;101825.53;5116644;28;1627;-40
2021/10/29 12:14:31;;;;;;;;;;;;;;;19.24;61.46;101821.16;5118580;28;1817;-40
2021/10/29 12:17:05;;;;;;;;;;;;;;;19.21;61.33;101821.34;5111877;28;1592;-40
2021/10/29 12:19:32;;;;;;;;;;;;;;;19.23;61.79;101825.63;5109642;28;1597;-40
2021/10/29 12:22:07;;;;;;;;;;;;;;;19.21;61.17;101811.47;5114606;28;1700;-40
2021/10/29 12:24:46;;;;;;;;;;;;;;;19.22;61.22;101813.19;5113802;28;1735;-40
2021/10/29 12:27:27;;;;;;;;;;;;;;;19.20;61.17;101795.50;5109177;28;1981;-40
2021/10/29 12:30:08;;;;;;;;;;;;;;;19.18;61.73;101795.63;5114705;28;1511;-40
2021/10/29 12:53:09;;;;;;;;;;;;;;;19.12;60.97;101806.81;5121578;28;1498;-42
2021/10/29 13:01:37;;;;;;;;;;;;;;;19.07;61.46;101798.22;5118308;27;1922;-42
2021/10/29 13:04:05;;;;;;;;;;;;;;;19.04;61.88;101793.94;5130297;27;1535;-42
2021/10/29 13:06:35;;;;;;;;;;;;;;;19.25;60.76;101804.06;5137451;27;1741;-43
2021/10/29 13:09:15;;;;;;;;;;;;;;;19.24;60.87;101794.31;5133093;27;1698;-42
2021/10/29 13:11:46;;;;;;;;;;;;;;;19.08;60.57;101794.59;5145095;27;1812;-43
2021/10/29 13:14:18;;;;;;;;;;;;;;;19.04;60.19;101793.94;5149373;27;1917;-42
2021/10/29 13:16:50;;;;;;;;;;;;;;;19.04;59.97;101798.47;5144524;27;1651;-42
2021/10/29 13:36:29;;;;;;;;;;;;;;;19.00;57.64;101803.19;5135264;27;1932;-42
2021/10/29 13:53:00;;;;;;;;;;;;;;;19.61;56.14;101813.06;5129180;27;1765;-42
2021/10/29 14:29:08;;;;;;;;;;;;;;;18.81;55.34;101797.41;5122814;27;1490;-42
2021/10/29 14:31:45;;;;;;;;;;;;;;;18.68;54.83;101800.06;5118668;27;1776;-43
2021/10/29 14:34:17;;;;;;;;;;;;;;;18.57;53.95;101798.13;5128132;27;1987;-43
2021/10/29 14:36:57;;;;;;;;;;;;;;;18.54;54.00;101798.34;5120076;27;1766;-42
2021/10/29 14:39:34;;;;;;;;;;;;;;;18.35;53.80;101795.25;5125564;27;1555;-42
2021/10/29 14:42:17;;;;;;;;;;;;;;;18.40;54.02;101793.97;5120825;27;1553;-41
2021/10/29 14:47:34;;;;;;;;;;;;;;;18.71;54.01;101799.00;5124071;27;2006;-42
2021/10/29 14:50:28;;;;;;;;;;;;;;;18.90;56.61;101804.81;5121302;27;1761;-41
2021/10/29 14:53:17;;;;;;;;;;;;;;;18.98;57.65;101804.22;5113861;27;1501;-42
2021/10/29 15:29:30;;;;;;;;;;;;;;;20.33;56.87;101820.19;5125278;27;1812;-40
2021/10/29 15:32:18;;;;;;;;;;;;;;;20.33;57.14;101821.03;5116575;27;1728;-40
2021/10/29 15:43:32;;;;;;;;;;;;;;;20.32;57.99;101810.44;5121993;27;1683;-39
2021/10/29 15:46:06;;;;;;;;;;;;;;;20.16;58.96;101819.66;5115024;27;1593;-42
2021/10/29 15:48:44;;;;;;;;;;;;;;;20.10;58.78;101814.75;5116079;27;1853;-43
2021/10/29 15:53:51;;;;;;;;;;;;;;;20.27;59.34;101817.03;5116531;27;2404;-42
2021/10/29 15:56:28;;;;;;;;;;;;;;;20.13;58.37;101841.38;5121957;27;1545;-42
2021/10/29 15:59:04;;;;;;;;;;;;;;;19.98;60.21;101826.44;5125351;27;1684;-42
2021/10/29 16:01:40;;;;;;;;;;;;;;;19.95;60.89;101826.66;5122869;27;1578;-43
2021/10/29 16:17:54;;;;;;;;;;;;;;;20.85;59.43;101843.03;5119803;27;2076;-40
2021/10/29 16:20:21;;;;;;;;;;;;;;;20.55;60.30;101830.13;5117218;27;1670;-42
2021/10/29 16:22:54;;;;;;;;;;;;;;;20.46;61.01;101837.09;5115330;27;1283;-43
2021/10/29 16:25:22;;;;;;;;;;;;;;;20.56;61.97;101831.84;5113785;28;1297;-41
2021/10/29 16:27:56;;;;;;;;;;;;;;;20.78;60.84;101857.94;5114120;27;1448;-41
2021/10/29 16:30:26;;;;;;;;;;;;;;;20.55;60.44;101857.88;5124119;27;1582;-42
2021/10/29 16:33:23;;;;;;;;;;;;;;;20.26;62.52;101847.53;5124437;28;1711;-40
2021/10/29 16:36:05;;;;;;;;;;;;;;;20.71;60.63;101862.06;5115354;28;1909;-42
2021/10/29 16:38:36;;;;;;;;;;;;;;;20.84;60.90;101862.81;5122824;28;1091;-43
2021/10/29 16:41:02;;;;;;;;;;;;;;;20.64;61.55;101849.09;5118008;28;1929;-42
2021/10/29 16:43:39;;;;;;;;;;;;;;;20.39;60.98;101868.94;5116772;28;1768;-41
2021/10/29 16:46:07;;;;;;;;;;;;;;;20.43;62.13;101859.69;5121511;28;1663;-42
2021/10/29 16:48:37;;;;;;;;;;;;;;;20.54;61.70;101849.91;5111524;28;1979;-42
2021/10/29 16:51:08;;;;;;;;;;;;;;;20.52;60.50;101863.47;5121712;28;1371;-41
2021/10/29 16:53:37;;;;;;;;;;;;;;;20.18;61.03;101863.38;5118792;28;1312;-40
2021/10/29 16:56:04;;;;;;;;;;;;;;;20.22;62.48;101867.53;5116256;28;1968;-42
2021/10/29 16:58:32;;;;;;;;;;;;;;;20.53;61.17;101878.63;5124212;28;1588;-40
2021/10/29 17:01:08;;;;;;;;;;;;;;;20.47;60.98;101873.69;5123149;28;1799;-40
2021/10/29 17:03:35;;;;;;;;;;;;;;;20.25;62.16;101870.00;5126224;28;1799;-41
2021/10/29 17:06:04;;;;;;;;;;;;;;;20.39;62.66;101878.81;5127131;28;1559;-38
2021/10/29 17:08:33;;;;;;;;;;;;;;;20.81;61.82;101884.56;5119710;28;1477;-41
2021/10/29 17:11:02;;;;;;;;;;;;;;;20.44;61.52;101882.03;5124252;28;1910;-39
2021/10/29 17:13:29;;;;;;;;;;;;;;;20.11;62.06;101883.59;5121525;28;1939;-42
2021/10/29 17:16:01;;;;;;;;;;;;;;;20.27;63.46;101873.44;5120245;28;1979;-40
2021/10/29 17:18:33;;;;;;;;;;;;;;;20.67;60.60;101882.94;5127525;28;1856;-40
2021/10/29 17:21:03;;;;;;;;;;;;;;;20.43;60.96;101874.91;5129252;27;1533;-42
2021/10/29 17:23:40;;;;;;;;;;;;;;;20.32;62.35;101878.44;5124807;27;1617;-41
2021/10/29 17:26:10;;;;;;;;;;;;;;;20.40;62.33;101885.91;5122026;27;1706;-39
2021/10/29 17:28:38;;;;;;;;;;;;;;;20.73;61.96;101873.53;5125939;27;1658;-39
2021/10/29 17:31:10;;;;;;;;;;;;;;;20.62;61.90;101885.16;5123574;27;1738;-40